createdAt,value
2019-05-09T00:00:11.104Z,7.60
2019-05-09T00:02:43.614Z,7.50
2019-05-09T00:05:14.451Z,7.60
2019-05-09T00:07:45.015Z,7.50
2019-05-09T00:10:16.596Z,7.40
2019-05-09T00:12:47.382Z,7.40
2019-05-09T00:15:18.000Z,7.30
2019-05-09T00:17:48.697Z,7.30
2019-05-09T00:20:33.679Z,7.30
2019-05-09T00:23:04.339Z,7.30
2019-05-09T00:25:34.908Z,7.30
2019-05-09T00:28:06.854Z,7.40
2019-05-09T00:30:55.010Z,7.30
2019-05-09T00:33:28.875Z,7.30
2019-05-09T00:35:59.863Z,7.30
2019-05-09T00:38:48.673Z,7.40
2019-05-09T00:41:19.812Z,7.40
2019-05-09T00:43:56.898Z,7.40
2019-05-09T00:46:34.137Z,7.40
2019-05-09T00:49:07.886Z,7.50
2019-05-09T00:51:38.478Z,7.50
2019-05-09T00:54:09.361Z,7.50
2019-05-09T00:56:39.892Z,7.50
2019-05-09T00:59:10.725Z,7.50
2019-05-09T01:01:43.539Z,7.50
2019-05-09T01:04:14.236Z,7.50
2019-05-09T01:06:45.005Z,7.50
2019-05-09T01:09:16.234Z,7.50
2019-05-09T01:11:46.924Z,7.50
2019-05-09T01:14:18.126Z,7.50
2019-05-09T01:16:48.759Z,7.50
2019-05-09T01:19:19.619Z,7.50
2019-05-09T01:21:50.178Z,7.50
2019-05-09T01:24:23.128Z,7.50
2019-05-09T01:26:54.188Z,7.40
2019-05-09T01:29:25.835Z,7.40
2019-05-09T01:31:58.043Z,7.30
2019-05-09T01:34:33.103Z,7.20
2019-05-09T01:37:04.524Z,7.20
2019-05-09T01:39:36.792Z,7.30
2019-05-09T01:42:07.490Z,7.30
2019-05-09T01:44:38.051Z,7.30
2019-05-09T01:47:09.096Z,7.30
2019-05-09T01:49:40.420Z,7.30
2019-05-09T01:52:13.577Z,7.40
2019-05-09T01:54:45.916Z,7.40
2019-05-09T01:57:16.475Z,7.50
2019-05-09T01:59:47.060Z,7.50
2019-05-09T02:02:18.167Z,7.50
2019-05-09T02:04:48.925Z,7.60
2019-05-09T02:07:19.558Z,7.50
2019-05-09T02:09:50.248Z,7.40
2019-05-09T02:12:21.011Z,7.30
2019-05-09T02:15:03.712Z,7.20
2019-05-09T02:18:01.081Z,7.20
2019-05-09T02:20:24.891Z,7.20
2019-05-09T02:22:55.426Z,7.30
2019-05-09T02:25:26.018Z,7.40
2019-05-09T02:27:56.577Z,7.40
2019-05-09T02:30:27.150Z,7.40
2019-05-09T02:32:58.118Z,7.40
2019-05-09T02:35:33.184Z,7.50
2019-05-09T02:38:01.279Z,7.40
2019-05-09T02:40:31.960Z,7.50
2019-05-09T02:43:04.258Z,7.50
2019-05-09T02:45:42.213Z,7.40
2019-05-09T02:48:13.123Z,7.40
2019-05-09T02:50:43.967Z,7.50
2019-05-09T02:53:14.556Z,7.40
2019-05-09T02:55:45.108Z,7.40
2019-05-09T02:58:20.337Z,7.40
2019-05-09T03:01:00.405Z,7.40
2019-05-09T03:03:33.793Z,7.50
2019-05-09T03:06:04.480Z,7.50
2019-05-09T03:08:38.209Z,7.50
2019-05-09T03:11:09.831Z,7.40
2019-05-09T03:13:39.771Z,7.50
2019-05-09T03:16:13.856Z,7.50
2019-05-09T03:18:44.712Z,7.50
2019-05-09T03:21:30.100Z,7.50
2019-05-09T03:24:01.136Z,7.50
2019-05-09T03:26:38.459Z,7.50
2019-05-09T03:29:13.403Z,7.50
2019-05-09T03:31:44.753Z,7.50
2019-05-09T03:34:15.311Z,7.50
2019-05-09T03:36:47.687Z,7.60
2019-05-09T03:39:18.611Z,7.50
2019-05-09T03:41:49.258Z,7.50
2019-05-09T03:44:20.285Z,7.60
2019-05-09T03:47:08.392Z,7.50
2019-05-09T03:49:39.120Z,7.50
2019-05-09T03:52:10.333Z,7.50
2019-05-09T03:54:41.225Z,7.50
2019-05-09T03:57:22.946Z,7.50
2019-05-09T03:59:53.562Z,7.50
2019-05-09T04:02:24.188Z,7.50
2019-05-09T04:04:54.789Z,7.50
2019-05-09T04:07:25.380Z,7.50
2019-05-09T04:09:58.424Z,7.50
2019-05-09T04:12:28.577Z,7.50
2019-05-09T04:14:59.195Z,7.50
2019-05-09T04:17:43.765Z,7.50
2019-05-09T04:20:17.534Z,7.60
2019-05-09T04:22:49.065Z,7.60
2019-05-09T04:25:27.347Z,7.60
2019-05-09T04:27:58.432Z,7.60
2019-05-09T04:30:29.240Z,7.60
2019-05-09T04:32:59.826Z,7.60
2019-05-09T04:35:30.461Z,7.60
2019-05-09T04:38:01.231Z,7.70
2019-05-09T04:40:32.193Z,7.80
2019-05-09T04:43:14.105Z,7.80
2019-05-09T04:45:42.226Z,7.80
2019-05-09T04:48:31.314Z,7.80
2019-05-09T04:51:03.949Z,7.90
2019-05-09T04:53:34.734Z,7.90
2019-05-09T04:56:19.989Z,7.80
2019-05-09T04:58:50.561Z,7.90
2019-05-09T05:01:31.456Z,8.10
2019-05-09T05:04:02.025Z,8.20
2019-05-09T05:06:32.598Z,8.40
2019-05-09T05:09:07.860Z,8.60
2019-05-09T05:11:38.524Z,8.80
2019-05-09T05:14:11.863Z,8.90
2019-05-09T05:16:42.402Z,9.00
2019-05-09T05:19:13.186Z,9.00
2019-05-09T05:21:43.771Z,9.10
2019-05-09T05:24:20.222Z,9.20
2019-05-09T05:26:51.110Z,9.10
2019-05-09T05:29:21.961Z,9.10
2019-05-09T05:31:53.882Z,9.10
2019-05-09T05:34:42.095Z,9.60
2019-05-09T05:37:13.026Z,10.10
2019-05-09T05:39:43.552Z,10.20
2019-05-09T05:42:14.333Z,10.50
2019-05-09T05:44:45.211Z,10.60
2019-05-09T05:47:32.051Z,10.80
2019-05-09T05:50:03.875Z,11.00
2019-05-09T05:52:34.462Z,11.20
2019-05-09T05:55:07.415Z,11.70
2019-05-09T05:57:38.563Z,12.20
2019-05-09T06:00:10.753Z,12.40
2019-05-09T06:02:41.406Z,13.10
2019-05-09T06:05:12.732Z,13.40
2019-05-09T06:07:43.430Z,13.60
2019-05-09T06:10:14.744Z,13.20
2019-05-09T06:12:45.563Z,12.70
2019-05-09T06:15:18.206Z,12.30
2019-05-09T06:17:49.487Z,12.10
2019-05-09T06:20:20.606Z,12.10
2019-05-09T06:22:51.389Z,11.70
2019-05-09T06:25:22.273Z,11.60
2019-05-09T06:27:52.886Z,11.60
2019-05-09T06:30:30.630Z,11.40
2019-05-09T06:33:04.592Z,11.70
2019-05-09T06:35:33.887Z,11.70
2019-05-09T06:38:04.850Z,11.80
2019-05-09T06:40:35.452Z,11.90
2019-05-09T06:43:19.574Z,11.80
2019-05-09T06:46:24.424Z,11.70
2019-05-09T06:49:17.910Z,11.70
2019-05-09T06:51:27.847Z,11.70
2019-05-09T06:53:58.617Z,11.70
2019-05-09T06:56:29.410Z,11.80
2019-05-09T06:58:59.976Z,11.90
2019-05-09T07:01:41.913Z,11.80
2019-05-09T07:04:19.086Z,11.80
2019-05-09T07:06:53.599Z,11.80
2019-05-09T07:09:38.483Z,11.70
2019-05-09T07:12:09.219Z,11.70
2019-05-09T07:14:41.901Z,11.60
2019-05-09T07:17:12.707Z,11.60
2019-05-09T07:19:44.106Z,11.50
2019-05-09T07:22:34.569Z,11.60
2019-05-09T07:25:11.988Z,11.70
2019-05-09T07:27:42.819Z,11.80
2019-05-09T07:30:21.396Z,11.80
2019-05-09T07:33:10.840Z,11.90
2019-05-09T07:35:41.582Z,11.90
2019-05-09T07:38:12.989Z,11.80
2019-05-09T07:40:43.604Z,11.80
2019-05-09T07:43:14.932Z,12.10
2019-05-09T07:46:04.384Z,12.60
2019-05-09T07:48:35.120Z,13.20
2019-05-09T07:51:07.874Z,13.40
2019-05-09T07:53:38.254Z,13.10
2019-05-09T07:56:09.016Z,13.00
2019-05-09T07:58:39.662Z,13.20
2019-05-09T08:01:10.908Z,13.40
2019-05-09T08:03:41.998Z,13.50
2019-05-09T08:06:12.715Z,13.30
2019-05-09T08:08:43.375Z,13.00
2019-05-09T08:11:14.268Z,12.80
2019-05-09T08:13:44.949Z,12.70
2019-05-09T08:16:15.851Z,12.70
2019-05-09T08:18:48.275Z,12.50
2019-05-09T08:21:19.347Z,12.40
2019-05-09T08:23:50.094Z,12.50
2019-05-09T08:26:21.130Z,12.40
2019-05-09T08:28:51.779Z,12.50
2019-05-09T08:31:22.860Z,12.60
2019-05-09T08:33:53.764Z,13.00
2019-05-09T08:36:24.997Z,13.30
2019-05-09T08:38:58.394Z,13.30
2019-05-09T08:41:29.219Z,13.60
2019-05-09T08:44:00.044Z,13.40
2019-05-09T08:46:30.731Z,13.30
2019-05-09T08:49:01.369Z,13.10
2019-05-09T08:52:07.965Z,12.90
2019-05-09T08:54:40.866Z,12.70
2019-05-09T08:57:11.798Z,12.50
2019-05-09T08:59:42.679Z,12.60
2019-05-09T09:02:18.569Z,12.70
2019-05-09T09:04:48.602Z,12.70
2019-05-09T09:07:19.206Z,12.80
2019-05-09T09:09:49.926Z,12.90
2019-05-09T09:12:30.281Z,12.80
2019-05-09T09:14:53.189Z,12.80
2019-05-09T09:17:24.454Z,12.60
2019-05-09T09:19:55.053Z,12.70
2019-05-09T09:22:28.161Z,12.70
2019-05-09T09:24:58.779Z,12.70
2019-05-09T09:27:30.164Z,12.60
2019-05-09T09:30:16.478Z,12.50
2019-05-09T09:32:33.182Z,12.50
2019-05-09T09:35:05.154Z,12.60
2019-05-09T09:37:47.890Z,12.80
2019-05-09T09:40:08.978Z,12.70
2019-05-09T09:42:39.990Z,12.70
2019-05-09T09:45:11.059Z,12.50
2019-05-09T09:47:41.697Z,12.40
2019-05-09T09:50:13.302Z,12.10
2019-05-09T09:52:44.070Z,11.90
2019-05-09T09:55:15.378Z,11.80
2019-05-09T09:57:48.286Z,11.60
2019-05-09T10:00:58.588Z,11.70
2019-05-09T10:03:30.038Z,11.60
2019-05-09T10:06:00.804Z,11.50
2019-05-09T10:08:31.724Z,11.40
2019-05-09T10:11:02.303Z,11.30
2019-05-09T10:13:32.938Z,11.20
2019-05-09T10:16:28.462Z,11.30
2019-05-09T10:18:58.016Z,11.20
2019-05-09T10:21:32.513Z,11.20
2019-05-09T10:24:04.517Z,11.20
2019-05-09T10:26:38.991Z,11.30
2019-05-09T10:29:09.121Z,11.40
2019-05-09T10:31:39.836Z,11.40
2019-05-09T10:34:11.291Z,11.50
2019-05-09T10:36:41.997Z,11.60
2019-05-09T10:39:12.884Z,11.60
2019-05-09T10:41:43.816Z,11.70
2019-05-09T10:44:22.363Z,12.10
2019-05-09T10:47:01.887Z,12.10
2019-05-09T10:49:30.793Z,12.10
2019-05-09T10:52:01.445Z,12.10
2019-05-09T10:54:32.063Z,12.20
2019-05-09T10:57:02.877Z,12.10
2019-05-09T10:59:33.998Z,12.30
2019-05-09T11:02:05.376Z,12.70
2019-05-09T11:04:37.876Z,13.00
2019-05-09T11:07:08.710Z,13.00
2019-05-09T11:09:39.301Z,13.30
2019-05-09T11:12:10.219Z,13.60
2019-05-09T11:14:40.978Z,13.60
2019-05-09T11:17:18.486Z,13.70
2019-05-09T11:19:43.951Z,13.50
2019-05-09T11:22:15.117Z,13.60
2019-05-09T11:24:50.557Z,13.60
2019-05-09T11:27:18.751Z,13.50
2019-05-09T11:29:53.840Z,13.40
2019-05-09T11:32:29.079Z,13.30
2019-05-09T11:34:59.763Z,13.40
2019-05-09T11:37:30.431Z,13.50
2019-05-09T11:40:01.170Z,13.50
2019-05-09T11:42:33.547Z,13.40
2019-05-09T11:45:07.658Z,13.30
2019-05-09T11:47:45.803Z,13.10
2019-05-09T11:50:14.752Z,13.00
2019-05-09T11:52:45.395Z,13.10
2019-05-09T11:55:29.838Z,13.10
2019-05-09T11:57:49.154Z,13.00
2019-05-09T12:00:22.212Z,13.00
2019-05-09T12:02:53.154Z,12.90
2019-05-09T12:05:24.222Z,12.90
2019-05-09T12:07:58.219Z,12.90
2019-05-09T12:10:28.723Z,12.90
2019-05-09T12:12:59.512Z,13.00
2019-05-09T12:15:30.146Z,13.00
2019-05-09T12:18:08.063Z,13.00
2019-05-09T12:20:37.448Z,12.80
2019-05-09T12:23:08.125Z,12.60
2019-05-09T12:25:39.021Z,12.50
2019-05-09T12:28:09.619Z,12.40
2019-05-09T12:30:40.188Z,12.10
2019-05-09T12:33:11.223Z,11.90
2019-05-09T12:35:42.093Z,11.80
2019-05-09T12:38:13.104Z,11.80
2019-05-09T12:40:44.058Z,11.80
2019-05-09T12:43:15.131Z,11.80
2019-05-09T12:45:47.822Z,11.70
2019-05-09T12:48:19.445Z,11.50
2019-05-09T12:50:50.380Z,11.50
2019-05-09T12:53:21.322Z,11.50
2019-05-09T12:56:00.076Z,11.40
2019-05-09T12:58:31.446Z,11.40
2019-05-09T13:01:02.371Z,11.40
2019-05-09T13:03:33.143Z,11.20
2019-05-09T13:06:07.768Z,11.30
2019-05-09T13:08:38.628Z,11.20
2019-05-09T13:11:09.609Z,11.20
2019-05-09T13:13:41.371Z,11.20
2019-05-09T13:16:39.046Z,11.30
2019-05-09T13:19:15.147Z,11.30
2019-05-09T13:21:45.887Z,11.30
2019-05-09T13:24:19.598Z,11.30
2019-05-09T13:26:51.267Z,11.30
2019-05-09T13:29:22.214Z,11.30
2019-05-09T13:31:53.158Z,11.30
2019-05-09T13:34:24.167Z,11.40
2019-05-09T13:36:54.887Z,11.40
2019-05-09T13:39:27.794Z,11.40
2019-05-09T13:41:58.672Z,11.40
2019-05-09T13:44:29.476Z,11.30
2019-05-09T13:47:00.171Z,11.40
2019-05-09T13:49:31.422Z,11.50
2019-05-09T13:52:04.935Z,11.50
2019-05-09T13:54:34.741Z,11.60
2019-05-09T13:57:08.390Z,11.80
2019-05-09T13:59:38.374Z,11.80
2019-05-09T14:02:09.513Z,11.80
2019-05-09T14:04:40.269Z,11.90
2019-05-09T14:07:11.760Z,11.90
2019-05-09T14:09:42.453Z,11.90
2019-05-09T14:12:13.268Z,12.00
2019-05-09T14:14:44.434Z,12.00
2019-05-09T14:17:18.721Z,12.10
2019-05-09T14:19:51.060Z,12.10
2019-05-09T14:22:20.322Z,12.10
2019-05-09T14:24:50.975Z,12.20
2019-05-09T14:27:21.776Z,12.10
2019-05-09T14:29:52.511Z,12.30
2019-05-09T14:32:26.550Z,12.60
2019-05-09T14:34:58.672Z,12.70
2019-05-09T14:37:29.443Z,12.70
2019-05-09T14:40:04.130Z,12.60
2019-05-09T14:42:32.478Z,12.50
2019-05-09T14:47:47.578Z,12.50
2019-05-09T14:50:18.485Z,12.50
2019-05-09T14:52:50.543Z,12.50
2019-05-09T14:55:21.382Z,12.40
2019-05-09T14:57:52.364Z,12.30
2019-05-09T15:00:23.785Z,12.30
2019-05-09T15:02:54.576Z,12.40
2019-05-09T15:05:25.285Z,12.30
2019-05-09T15:07:58.899Z,12.30
2019-05-09T15:10:28.631Z,12.30
2019-05-09T15:12:59.342Z,12.20
2019-05-09T15:15:32.624Z,12.00
2019-05-09T15:18:02.672Z,11.90
2019-05-09T15:20:33.352Z,11.80
2019-05-09T15:23:05.703Z,11.60
2019-05-09T15:25:36.520Z,11.70
2019-05-09T15:28:08.363Z,11.70
2019-05-09T15:30:39.032Z,11.70
2019-05-09T15:33:09.742Z,11.60
2019-05-09T15:35:40.395Z,11.80
2019-05-09T15:38:11.711Z,11.70
2019-05-09T15:40:42.605Z,11.80
2019-05-09T15:43:13.509Z,11.80
2019-05-09T15:45:54.152Z,11.70
2019-05-09T15:48:27.356Z,11.80
2019-05-09T15:50:58.300Z,11.90
2019-05-09T15:53:29.303Z,12.10
2019-05-09T15:55:59.990Z,12.20
2019-05-09T15:58:30.590Z,12.10
2019-05-09T16:01:01.311Z,12.20
2019-05-09T16:03:31.969Z,12.20
2019-05-09T16:06:02.573Z,12.00
2019-05-09T16:08:33.647Z,12.10
2019-05-09T16:11:08.544Z,12.10
2019-05-09T16:13:38.154Z,12.10
2019-05-09T16:16:09.390Z,12.10
2019-05-09T16:18:42.787Z,12.20
2019-05-09T16:21:12.487Z,12.10
2019-05-09T16:23:43.107Z,12.10
2019-05-09T16:26:13.904Z,12.10
2019-05-09T16:28:44.668Z,11.90
2019-05-09T16:31:15.592Z,11.80
2019-05-09T16:33:47.764Z,11.80
2019-05-09T16:36:18.868Z,11.70
2019-05-09T16:38:49.544Z,11.70
2019-05-09T16:41:20.477Z,11.60
2019-05-09T16:43:51.108Z,11.50
2019-05-09T16:46:21.764Z,11.50
2019-05-09T16:48:52.855Z,11.40
2019-05-09T16:51:23.844Z,11.50
2019-05-09T16:53:58.556Z,11.50
2019-05-09T16:56:30.653Z,11.60
2019-05-09T16:59:02.519Z,11.70
2019-05-09T17:01:39.094Z,11.90
2019-05-09T17:04:09.615Z,11.90
2019-05-09T17:06:41.417Z,11.80
2019-05-09T17:09:18.114Z,11.70
2019-05-09T17:11:49.832Z,11.70
2019-05-09T17:14:23.292Z,11.60
2019-05-09T17:16:59.596Z,11.40
2019-05-09T17:19:28.753Z,11.30
2019-05-09T17:22:20.348Z,11.20
2019-05-09T17:24:52.266Z,11.20
2019-05-09T17:27:28.095Z,11.10
2019-05-09T17:30:01.201Z,11.00
2019-05-09T17:32:33.058Z,11.10
2019-05-09T17:35:07.513Z,11.10
2019-05-09T17:37:40.718Z,11.00
2019-05-09T17:40:15.939Z,10.90
2019-05-09T17:42:45.108Z,10.90
2019-05-09T17:45:18.816Z,10.80
2019-05-09T17:47:50.624Z,10.80
2019-05-09T17:50:27.821Z,10.90
2019-05-09T17:52:58.283Z,10.80
2019-05-09T17:55:29.086Z,11.00
2019-05-09T17:58:02.144Z,10.90
2019-05-09T18:00:32.907Z,10.90
2019-05-09T18:03:07.330Z,10.90
2019-05-09T18:05:40.137Z,10.90
2019-05-09T18:08:13.338Z,10.80
2019-05-09T18:10:44.984Z,10.80
2019-05-09T18:13:23.647Z,10.80
2019-05-09T18:15:52.613Z,10.80
2019-05-09T18:18:28.437Z,10.80
2019-05-09T18:20:59.270Z,10.80
2019-05-09T18:23:32.908Z,10.50
2019-05-09T18:26:05.026Z,10.50
2019-05-09T18:28:38.629Z,10.50
2019-05-09T18:31:12.733Z,10.50
2019-05-09T18:33:49.195Z,10.40
2019-05-09T18:36:44.031Z,10.40
2019-05-09T18:39:15.210Z,10.50
2019-05-09T18:41:48.223Z,10.50
2019-05-09T18:44:20.643Z,10.40
2019-05-09T18:46:52.658Z,10.30
2019-05-09T18:49:23.634Z,10.30
2019-05-09T18:52:03.233Z,10.20
2019-05-09T18:54:26.874Z,10.20
2019-05-09T18:56:58.171Z,10.20
2019-05-09T18:59:29.158Z,10.20
2019-05-09T19:02:00.241Z,10.20
2019-05-09T19:04:30.923Z,10.20
2019-05-09T19:07:20.735Z,10.20
2019-05-09T19:09:34.779Z,10.20
2019-05-09T19:12:06.552Z,10.20
2019-05-09T19:14:37.598Z,10.10
2019-05-09T19:17:26.009Z,10.00
2019-05-09T19:20:14.857Z,10.10
2019-05-09T19:22:45.725Z,10.20
2019-05-09T19:25:16.396Z,10.20
2019-05-09T19:27:47.101Z,10.20
2019-05-09T19:30:18.382Z,10.20
2019-05-09T19:32:49.073Z,10.10
2019-05-09T19:35:21.043Z,10.10
2019-05-09T19:37:51.703Z,10.10
2019-05-09T19:40:22.343Z,10.00
2019-05-09T19:42:53.017Z,10.00
2019-05-09T19:45:25.104Z,9.90
2019-05-09T19:47:57.124Z,9.80
2019-05-09T19:50:31.107Z,9.80
2019-05-09T19:53:01.954Z,9.80
2019-05-09T19:55:33.040Z,9.80
2019-05-09T19:58:04.285Z,9.70
2019-05-09T20:00:35.647Z,9.70
2019-05-09T20:03:06.524Z,9.70
2019-05-09T20:05:37.188Z,9.70
2019-05-09T20:08:09.110Z,9.80
2019-05-09T20:10:57.992Z,9.80
2019-05-09T20:13:39.862Z,9.80
2019-05-09T20:16:11.044Z,9.80
2019-05-09T20:18:42.105Z,9.80
2019-05-09T20:21:13.170Z,9.80
2019-05-09T20:23:43.951Z,9.80
2019-05-09T20:26:15.100Z,9.80
2019-05-09T20:28:46.074Z,9.90
2019-05-09T20:31:16.977Z,9.90
2019-05-09T20:33:49.118Z,10.00
2019-05-09T20:36:21.167Z,9.90
2019-05-09T20:38:52.131Z,9.90
2019-05-09T20:41:23.487Z,10.00
2019-05-09T20:43:54.406Z,10.00
2019-05-09T20:46:25.498Z,9.90
2019-05-09T20:48:56.356Z,9.90
2019-05-09T20:51:27.340Z,10.00
2019-05-09T20:53:58.470Z,10.00
2019-05-09T20:56:29.362Z,10.00
2019-05-09T20:59:00.362Z,10.00
2019-05-09T21:01:31.368Z,9.90
2019-05-09T21:04:05.153Z,9.90
2019-05-09T21:06:36.119Z,9.90
2019-05-09T21:09:08.512Z,9.90
2019-05-09T21:11:39.553Z,9.90
2019-05-09T21:14:10.361Z,9.90
2019-05-09T21:16:41.503Z,9.80
2019-05-09T21:19:12.402Z,9.80
2019-05-09T21:21:43.229Z,9.80
2019-05-09T21:24:14.392Z,9.80
2019-05-09T21:26:45.185Z,9.80
2019-05-09T21:29:16.314Z,9.80
2019-05-09T21:31:47.394Z,9.80
2019-05-09T21:34:18.272Z,9.70
2019-05-09T21:36:49.041Z,9.70
2019-05-09T21:39:23.301Z,9.70
2019-05-09T21:41:54.212Z,9.60
2019-05-09T21:44:25.095Z,9.50
2019-05-09T21:46:55.729Z,9.50
2019-05-09T21:49:26.351Z,9.40
2019-05-09T21:51:57.017Z,9.30
2019-05-09T21:54:27.629Z,9.30
2019-05-09T21:56:58.347Z,9.20
2019-05-09T21:59:29.030Z,9.10
2019-05-09T22:01:59.766Z,9.10
2019-05-09T22:04:30.337Z,9.10
2019-05-09T22:07:01.237Z,9.10
2019-05-09T22:09:32.092Z,9.10
2019-05-09T22:12:03.021Z,9.20
2019-05-09T22:14:33.631Z,9.10
2019-05-09T22:17:10.597Z,9.20
2019-05-09T22:19:41.233Z,9.20
2019-05-09T22:22:12.159Z,9.20
2019-05-09T22:24:43.020Z,9.20
2019-05-09T22:27:14.282Z,9.30
2019-05-09T22:29:45.166Z,9.30
2019-05-09T22:32:16.334Z,9.30
2019-05-09T22:34:47.194Z,9.30
2019-05-09T22:37:17.995Z,9.30
2019-05-09T22:39:48.641Z,9.30
2019-05-09T22:42:19.439Z,9.30
2019-05-09T22:44:50.220Z,9.30
2019-05-09T22:47:21.467Z,9.30
2019-05-09T22:49:52.963Z,9.30
2019-05-09T22:52:23.637Z,9.30
2019-05-09T22:54:54.255Z,9.40
2019-05-09T22:57:25.130Z,9.40
2019-05-09T22:59:55.966Z,9.30
2019-05-09T23:02:26.653Z,9.30
2019-05-09T23:04:57.250Z,9.40
2019-05-09T23:07:27.840Z,9.40
2019-05-09T23:09:58.425Z,9.40
2019-05-09T23:12:29.070Z,9.40
2019-05-09T23:14:59.684Z,9.40
2019-05-09T23:17:30.293Z,9.40
2019-05-09T23:20:02.683Z,9.40
2019-05-09T23:22:33.523Z,9.40
2019-05-09T23:25:04.360Z,9.40
2019-05-09T23:27:35.184Z,9.40
2019-05-09T23:30:07.910Z,9.50
2019-05-09T23:32:42.253Z,9.50
2019-05-09T23:35:12.836Z,9.50
2019-05-09T23:37:43.435Z,9.40
2019-05-09T23:40:14.400Z,9.50
2019-05-09T23:42:45.123Z,9.40
2019-05-09T23:45:15.783Z,9.40
2019-05-09T23:47:46.363Z,9.40
2019-05-09T23:50:16.997Z,9.40
2019-05-09T23:52:47.615Z,9.40
2019-05-09T23:55:36.407Z,9.40
2019-05-09T23:58:25.068Z,9.40
